createdAt,value
2022-08-14T00:01:59.335Z,34.06
2022-08-14T00:04:36.064Z,34.46
2022-08-14T00:07:14.202Z,34.58
2022-08-14T00:10:02.504Z,34.75
2022-08-14T00:12:33.587Z,34.33
2022-08-14T00:15:07.434Z,34.62
2022-08-14T00:17:38.152Z,34.56
2022-08-14T00:20:15.558Z,34.51
2022-08-14T00:22:57.715Z,34.94
2022-08-14T00:25:41.855Z,34.49
2022-08-14T00:28:15.171Z,35.07
2022-08-14T00:30:46.397Z,35.39
2022-08-14T00:33:15.080Z,35.43
2022-08-14T00:36:34.318Z,35.53
2022-08-14T00:38:34.935Z,35.56
2022-08-14T00:41:04.736Z,35.84
2022-08-14T00:43:33.029Z,35.80
2022-08-14T00:46:05.301Z,36.25
2022-08-14T09:01:22.821Z,33.49
2022-08-14T09:04:53.276Z,32.89
2022-08-14T09:07:50.001Z,32.41
2022-08-14T09:11:38.913Z,31.99
2022-08-14T09:15:17.333Z,31.60
2022-08-14T09:22:49.244Z,31.31
2022-08-14T09:26:00.158Z,30.64
2022-08-14T09:29:04.654Z,30.42
2022-08-14T09:31:52.647Z,30.54
2022-08-14T09:34:58.727Z,30.55
2022-08-14T09:38:00.970Z,30.55
2022-08-14T09:41:21.295Z,30.24
2022-08-14T09:45:15.493Z,29.94
2022-08-14T09:47:52.202Z,29.77
2022-08-14T09:50:36.183Z,29.30
2022-08-14T09:54:19.524Z,28.96
2022-08-14T09:57:14.720Z,28.62
2022-08-14T10:00:06.917Z,28.27
2022-08-14T10:03:10.313Z,27.63
2022-08-14T10:05:49.362Z,27.19
2022-08-14T10:09:18.705Z,26.52
2022-08-14T10:12:05.051Z,26.41
2022-08-14T10:14:42.019Z,25.92
2022-08-14T10:17:53.431Z,25.69
2022-08-14T10:24:17.551Z,25.06
2022-08-14T10:27:56.936Z,24.77
2022-08-14T10:30:44.283Z,24.42
2022-08-14T10:33:37.601Z,23.88
2022-08-14T10:36:16.551Z,23.25
2022-08-14T10:40:05.193Z,22.93
2022-08-14T10:43:41.045Z,22.97
2022-08-14T10:59:00.017Z,21.64
2022-08-14T11:06:52.635Z,21.90
2022-08-14T11:09:50.159Z,21.53
2022-08-14T11:23:13.824Z,22.64
2022-08-14T11:26:29.981Z,22.95
2022-08-14T11:33:36.355Z,22.73
2022-08-14T11:37:02.040Z,22.60
2022-08-14T11:40:19.912Z,22.42
2022-08-14T11:43:08.551Z,21.66
2022-08-14T11:45:39.148Z,21.72
2022-08-14T11:49:03.741Z,22.24
2022-08-14T11:51:05.951Z,21.63
2022-08-14T11:53:36.252Z,21.09
2022-08-14T11:56:12.791Z,20.60
2022-08-14T11:58:46.865Z,20.95
2022-08-14T12:01:21.612Z,19.84
2022-08-14T12:03:57.220Z,19.97
2022-08-14T12:20:29.866Z,17.61
2022-08-14T12:23:06.190Z,16.94
2022-08-14T12:26:01.301Z,16.81
2022-08-14T12:29:39.004Z,15.88
2022-08-14T12:32:39.646Z,16.37
2022-08-14T12:35:19.380Z,16.16
2022-08-14T12:39:16.608Z,15.90
2022-08-14T12:45:47.416Z,15.96
2022-08-14T12:56:22.485Z,14.73
2022-08-14T12:59:37.325Z,14.60
2022-08-14T13:06:39.668Z,15.10
2022-08-14T13:09:52.857Z,14.39
2022-08-14T13:12:39.801Z,14.91
2022-08-14T13:15:56.296Z,13.86
2022-08-14T13:18:57.449Z,13.90
2022-08-14T13:22:05.758Z,14.36
2022-08-14T13:25:11.764Z,13.90
2022-08-14T13:31:23.980Z,13.74
2022-08-14T13:34:28.354Z,13.85
2022-08-14T13:37:54.092Z,13.48
2022-08-14T13:59:07.827Z,13.17
2022-08-14T14:01:43.663Z,13.16
2022-08-14T14:04:18.829Z,12.99
2022-08-14T14:06:48.692Z,12.66
2022-08-14T14:09:17.231Z,12.74
2022-08-14T14:11:47.753Z,12.60
2022-08-14T14:14:45.013Z,12.60
2022-08-14T14:17:13.897Z,13.11
2022-08-14T14:19:46.488Z,13.07
2022-08-14T14:22:36.149Z,12.30
2022-08-14T14:25:06.097Z,12.20
2022-08-14T14:27:41.084Z,12.53
2022-08-14T14:30:15.126Z,12.16
2022-08-14T14:33:05.289Z,11.93
2022-08-14T14:35:38.573Z,11.90
2022-08-14T14:38:09.643Z,12.06
2022-08-14T14:40:52.781Z,12.17
2022-08-14T14:43:26.902Z,12.04
2022-08-14T14:45:57.794Z,11.65
2022-08-14T14:48:31.673Z,12.27
2022-08-14T14:51:01.701Z,11.72
2022-08-14T14:53:31.185Z,11.86
2022-08-14T14:56:47.201Z,11.83
2022-08-14T14:58:48.976Z,11.23
2022-08-14T15:01:25.819Z,11.92
2022-08-14T20:27:06.031Z,39.52
2022-08-14T21:05:19.468Z,39.71
2022-08-14T21:35:55.615Z,40.29
2022-08-14T22:25:18.006Z,40.38
2022-08-14T22:42:35.496Z,41.07
2022-08-14T23:47:26.690Z,41.97
